Welkom op Weerpagina Nieuwendam !!





My webcam Meer informatie My webcam


Onweer radar Meer informatie blitzortung!


Regen radar  rain snow radar


Bezoek onze andere website:

Template documentation
and downloads

And another site



METAR rapporten vliegvelden

   
EHAM - Amsterdam/Schiph, Netherlands
Afstand tot: ONO 18 km
Gewijzigd: 22-06-2018 02:55
Licht bewolkt  
Licht bewolkt  
   Wind: NW 9.8 m/s<br />Gust to 9.8 m/s
Wind: NW 9.8 m/s
Gust to 9.8 m/s
Temperatuur: 13°C
Dauwpunt: 6°C
Vochtigheid: 63%
Barometer: 1024 hPa
Bewolking: Few Clouds
Zicht: meer dan 10 km
Bewolking: Licht bewolkt 3200 ft
EHAM 220055Z 31019G29KT 280V340 9999 FEW032 13/06 Q1024 NOSIG
EHRD - Rotterdam Airpor, Netherlands
Afstand tot: ZZW 32 km
Gewijzigd: 22-06-2018 02:55
Gedeeltelijk bewolkt  
Gedeeltelijk bewolkt  
   Wind: WNW 5.7 m/s
Wind: WNW 5.7 m/s
Temperatuur: 13°C
Dauwpunt: 7°C
Vochtigheid: 67%
Barometer: 1025 hPa
Bewolking: Partly Cloudy
Zicht: meer dan 10 km
Bewolking: Gedeeltelijk bewolkt ft
EHRD 220055Z AUTO 30011KT 250V340 9999 NSC 13/07 Q1025 NOSIG
EHSC - Goeree Le Sea, Netherlands
Afstand tot: WZW 70 km
Gewijzigd: 22-06-2018 02:55
  
  
   Wind: NW 11.8 m/s
Wind: NW 11.8 m/s
Temperatuur: 14°C
Dauwpunt: 7°C
Vochtigheid: 63%
Barometer: 1025 hPa
Zicht: meer dan 10 km
EHSC 220055Z AUTO 32023KT 9999 ///////// 14/07 Q1025 W16/H17
EHKD - De Kooy (navy), Netherlands
Afstand tot: N 77 km
Gewijzigd: 22-06-2018 03:25
Grotendeels bewolkt  
Grotendeels bewolkt  
   Wind: NW 10.8 m/s<br />Gust to 10.8 m/s
Wind: NW 10.8 m/s
Gust to 10.8 m/s
Temperatuur: 13°C
Dauwpunt: 6°C
Vochtigheid: 63%
Barometer: 1022 hPa
Bewolking: Mostly Cloudy
Zicht: meer dan 10 km
Bewolking: Gedeeltelijk bewolkt 2900 ft,
Grotendeels bewolkt 3600 ft,
Grotendeels bewolkt 8500 ft
EHKD 220125Z AUTO 31021G32KT 280V350 9999 SCT029 BKN036 BKN085 13/06 Q1022 BLU
EHGR - Gilze-Rijen Rnla, Netherlands
Afstand tot: ZZO 78 km
Gewijzigd: 22-06-2018 02:55
Licht bewolkt  
Licht bewolkt  
   Wind: WNW 5.7 m/s
Wind: WNW 5.7 m/s
Temperatuur: 12°C
Dauwpunt: 6°C
Vochtigheid: 67%
Barometer: 1025 hPa
Bewolking: Few Clouds
Zicht: meer dan 10 km
Bewolking: Licht bewolkt 4400 ft
EHGR 220055Z AUTO 30011KT 260V330 9999 FEW044 12/06 Q1025 BLU
EHQE - Hoorn-A Sea, Netherlands
Afstand tot: NNW 81 km
Gewijzigd: 22-06-2018 02:55
Gedeeltelijk bewolkt  
Gedeeltelijk bewolkt  
   Wind: NW 16.5 m/s
Wind: NW 16.5 m/s
Temperatuur: 13°C
Dauwpunt: 7°C
Vochtigheid: 67%
Barometer: 1023 hPa
Bewolking: Partly Cloudy
Zicht: meer dan 10 km
Bewolking: Licht bewolkt 2200 ft,
Gedeeltelijk bewolkt 3100 ft
EHQE 220055Z AUTO 31032KT 9999 FEW022 SCT031 13/07 Q1023 W///H///
EHPG - P11-B Sea, Netherlands
Afstand tot: W 84 km
Gewijzigd: 22-06-2018 02:55
Gedeeltelijk bewolkt  
Gedeeltelijk bewolkt  
   Wind: Westen 9.3 m/s
Wind: Westen 9.3 m/s
Temperatuur: 14°C
Dauwpunt: 8°C
Vochtigheid: 67%
Barometer: 1025 hPa
Bewolking: Partly Cloudy
Zicht: meer dan 10 km
Bewolking: Gedeeltelijk bewolkt ft
EHPG 220055Z AUTO 28018KT 230V320 9999 NSC 14/08 Q1025 W///H///
EHWO - Woensdrecht Rnla, Netherlands
Afstand tot: Z 89 km
Gewijzigd: 22-06-2018 02:55
Licht bewolkt  
Licht bewolkt  
   Wind: WNW 3.1 m/s
Wind: WNW 3.1 m/s
Temperatuur: 11°C
Dauwpunt: 7°C
Vochtigheid: 77%
Barometer: 1026 hPa
Bewolking: Few Clouds
Zicht: meer dan 10 km
Bewolking: Licht bewolkt 3600 ft
EHWO 220055Z AUTO 30006KT 240V330 9999 FEW036 11/07 Q1026 BLU
 

Script ontwikkeld door  Saratoga-weather.org Aangepast voor de template door  Weerstation Leuven

U vindt ons ook hier:

UK Metoffice

European Weather Network

WeatherCloud

Weather Underground

Benelux Weer Netwerk

AWEKAS

Citizen Weather Observer Program (CWOP)

Apparatuur in gebruik:

Weerstation
Davis VP2

Weerprogramma
Weather Display

Weercomputer
My Computer

Davis VP2

Weather Display

My Computer